sensor_id;sensor_type;location;lat;lon;timestamp;P1;durP1;ratioP1;P2;durP2;ratioP2
21800;SDS011;11062;51.164;16.924;2023-03-03T00:01:18;65.90;;;31.50;;
21800;SDS011;11062;51.164;16.924;2023-03-03T00:04:08;82.90;;;49.72;;
21800;SDS011;11062;51.164;16.924;2023-03-03T00:06:49;86.35;;;50.47;;
21800;SDS011;11062;51.164;16.924;2023-03-03T00:09:34;86.03;;;53.22;;
21800;SDS011;11062;51.164;16.924;2023-03-03T00:12:27;89.35;;;53.33;;
21800;SDS011;11062;51.164;16.924;2023-03-03T00:14:57;67.47;;;35.00;;
21800;SDS011;11062;51.164;16.924;2023-03-03T00:17:29;68.57;;;40.00;;
21800;SDS011;11062;51.164;16.924;2023-03-03T00:20:01;61.20;;;34.42;;
21800;SDS011;11062;51.164;16.924;2023-03-03T00:22:53;71.72;;;35.88;;
21800;SDS011;11062;51.164;16.924;2023-03-03T00:25:44;65.75;;;28.63;;
21800;SDS011;11062;51.164;16.924;2023-03-03T00:28:24;62.95;;;26.55;;
21800;SDS011;11062;51.164;16.924;2023-03-03T00:30:56;59.78;;;27.42;;
21800;SDS011;11062;51.164;16.924;2023-03-03T00:33:28;62.78;;;27.70;;
21800;SDS011;11062;51.164;16.924;2023-03-03T00:36:05;78.07;;;29.40;;
21800;SDS011;11062;51.164;16.924;2023-03-03T00:38:46;72.97;;;27.80;;
21800;SDS011;11062;51.164;16.924;2023-03-03T00:43:49;81.88;;;29.30;;
21800;SDS011;11062;51.164;16.924;2023-03-03T00:46:20;80.97;;;28.38;;
21800;SDS011;11062;51.164;16.924;2023-03-03T00:48:48;75.78;;;28.67;;
21800;SDS011;11062;51.164;16.924;2023-03-03T00:53:44;73.05;;;27.50;;
21800;SDS011;11062;51.164;16.924;2023-03-03T00:56:09;68.07;;;26.50;;
21800;SDS011;11062;51.164;16.924;2023-03-03T00:58:35;75.00;;;28.42;;
21800;SDS011;11062;51.164;16.924;2023-03-03T01:01:01;67.55;;;26.30;;
21800;SDS011;11062;51.164;16.924;2023-03-03T01:03:27;77.55;;;28.05;;
21800;SDS011;11062;51.164;16.924;2023-03-03T01:05:53;69.43;;;26.63;;
21800;SDS011;11062;51.164;16.924;2023-03-03T01:08:19;62.35;;;25.88;;
21800;SDS011;11062;51.164;16.924;2023-03-03T01:11:06;58.80;;;25.73;;
21800;SDS011;11062;51.164;16.924;2023-03-03T01:13:44;91.15;;;28.13;;
21800;SDS011;11062;51.164;16.924;2023-03-03T01:16:11;79.55;;;24.75;;
21800;SDS011;11062;51.164;16.924;2023-03-03T01:18:37;81.30;;;27.75;;
21800;SDS011;11062;51.164;16.924;2023-03-03T01:21:06;92.40;;;29.10;;
21800;SDS011;11062;51.164;16.924;2023-03-03T01:23:32;97.30;;;29.17;;
21800;SDS011;11062;51.164;16.924;2023-03-03T01:25:59;80.90;;;26.83;;
21800;SDS011;11062;51.164;16.924;2023-03-03T01:28:24;52.53;;;25.10;;
21800;SDS011;11062;51.164;16.924;2023-03-03T01:30:53;51.92;;;24.13;;
21800;SDS011;11062;51.164;16.924;2023-03-03T01:33:24;54.35;;;23.50;;
21800;SDS011;11062;51.164;16.924;2023-03-03T01:35:49;67.10;;;26.80;;
21800;SDS011;11062;51.164;16.924;2023-03-03T01:38:15;56.00;;;26.20;;
21800;SDS011;11062;51.164;16.924;2023-03-03T01:40:41;60.25;;;25.35;;
21800;SDS011;11062;51.164;16.924;2023-03-03T01:43:12;68.47;;;26.20;;
21800;SDS011;11062;51.164;16.924;2023-03-03T01:50:51;61.15;;;26.50;;
21800;SDS011;11062;51.164;16.924;2023-03-03T01:53:22;59.40;;;26.58;;
21800;SDS011;11062;51.164;16.924;2023-03-03T01:55:57;56.33;;;24.00;;
21800;SDS011;11062;51.164;16.924;2023-03-03T01:58:28;52.05;;;24.05;;
21800;SDS011;11062;51.164;16.924;2023-03-03T02:00:59;54.35;;;25.38;;
21800;SDS011;11062;51.164;16.924;2023-03-03T02:03:31;55.05;;;25.77;;
21800;SDS011;11062;51.164;16.924;2023-03-03T02:06:01;61.70;;;26.60;;
21800;SDS011;11062;51.164;16.924;2023-03-03T02:08:32;57.17;;;25.10;;
21800;SDS011;11062;51.164;16.924;2023-03-03T02:11:06;58.85;;;25.98;;
21800;SDS011;11062;51.164;16.924;2023-03-03T02:14:10;65.50;;;26.92;;
21800;SDS011;11062;51.164;16.924;2023-03-03T02:17:46;89.35;;;28.63;;
21800;SDS011;11062;51.164;16.924;2023-03-03T02:24:37;61.50;;;25.45;;
21800;SDS011;11062;51.164;16.924;2023-03-03T02:28:17;73.63;;;26.80;;
21800;SDS011;11062;51.164;16.924;2023-03-03T02:31:45;117.45;;;30.77;;
21800;SDS011;11062;51.164;16.924;2023-03-03T02:44:42;68.07;;;26.27;;
21800;SDS011;11062;51.164;16.924;2023-03-03T02:47:10;59.13;;;24.52;;
21800;SDS011;11062;51.164;16.924;2023-03-03T02:49:36;60.80;;;28.35;;
21800;SDS011;11062;51.164;16.924;2023-03-03T02:52:09;59.50;;;26.00;;
21800;SDS011;11062;51.164;16.924;2023-03-03T02:54:38;70.68;;;38.22;;
21800;SDS011;11062;51.164;16.924;2023-03-03T02:57:08;69.30;;;30.58;;
21800;SDS011;11062;51.164;16.924;2023-03-03T02:59:34;66.15;;;34.95;;
21800;SDS011;11062;51.164;16.924;2023-03-03T03:02:00;64.75;;;29.88;;
21800;SDS011;11062;51.164;16.924;2023-03-03T03:04:59;64.82;;;27.98;;
21800;SDS011;11062;51.164;16.924;2023-03-03T03:08:27;47.08;;;24.15;;
21800;SDS011;11062;51.164;16.924;2023-03-03T03:11:19;53.72;;;22.83;;
21800;SDS011;11062;51.164;16.924;2023-03-03T03:14:32;66.18;;;26.55;;
21800;SDS011;11062;51.164;16.924;2023-03-03T03:16:58;98.20;;;34.08;;
21800;SDS011;11062;51.164;16.924;2023-03-03T03:19:25;90.25;;;32.58;;
21800;SDS011;11062;51.164;16.924;2023-03-03T03:21:52;104.57;;;31.30;;
21800;SDS011;11062;51.164;16.924;2023-03-03T03:24:18;104.65;;;32.35;;
21800;SDS011;11062;51.164;16.924;2023-03-03T03:26:44;90.18;;;30.15;;
21800;SDS011;11062;51.164;16.924;2023-03-03T03:29:09;102.55;;;30.05;;
21800;SDS011;11062;51.164;16.924;2023-03-03T03:31:35;98.95;;;31.65;;
21800;SDS011;11062;51.164;16.924;2023-03-03T03:34:02;94.18;;;30.95;;
21800;SDS011;11062;51.164;16.924;2023-03-03T03:36:27;111.82;;;32.95;;
21800;SDS011;11062;51.164;16.924;2023-03-03T03:38:53;96.50;;;31.77;;
21800;SDS011;11062;51.164;16.924;2023-03-03T03:41:19;101.40;;;35.58;;
21800;SDS011;11062;51.164;16.924;2023-03-03T03:43:45;110.22;;;44.08;;
21800;SDS011;11062;51.164;16.924;2023-03-03T03:46:11;120.18;;;48.38;;
21800;SDS011;11062;51.164;16.924;2023-03-03T03:48:37;100.97;;;49.15;;
21800;SDS011;11062;51.164;16.924;2023-03-03T03:51:03;98.78;;;44.78;;
21800;SDS011;11062;51.164;16.924;2023-03-03T03:53:29;95.05;;;43.72;;
21800;SDS011;11062;51.164;16.924;2023-03-03T03:55:55;99.70;;;44.50;;
21800;SDS011;11062;51.164;16.924;2023-03-03T03:58:21;93.93;;;38.78;;
21800;SDS011;11062;51.164;16.924;2023-03-03T04:00:47;94.78;;;36.28;;
21800;SDS011;11062;51.164;16.924;2023-03-03T04:03:13;79.70;;;27.30;;
21800;SDS011;11062;51.164;16.924;2023-03-03T04:05:39;81.18;;;26.13;;
21800;SDS011;11062;51.164;16.924;2023-03-03T04:08:06;93.57;;;30.83;;
21800;SDS011;11062;51.164;16.924;2023-03-03T04:10:32;79.85;;;29.38;;
21800;SDS011;11062;51.164;16.924;2023-03-03T04:12:58;77.47;;;25.88;;
21800;SDS011;11062;51.164;16.924;2023-03-03T04:15:24;100.53;;;28.73;;
21800;SDS011;11062;51.164;16.924;2023-03-03T04:17:50;84.30;;;33.03;;
21800;SDS011;11062;51.164;16.924;2023-03-03T04:20:16;99.30;;;41.63;;
21800;SDS011;11062;51.164;16.924;2023-03-03T04:22:42;91.03;;;50.28;;
21800;SDS011;11062;51.164;16.924;2023-03-03T04:25:09;158.23;;;73.97;;
21800;SDS011;11062;51.164;16.924;2023-03-03T04:27:39;138.88;;;68.20;;
21800;SDS011;11062;51.164;16.924;2023-03-03T04:30:05;137.45;;;63.40;;
21800;SDS011;11062;51.164;16.924;2023-03-03T04:32:32;130.77;;;60.45;;
21800;SDS011;11062;51.164;16.924;2023-03-03T04:34:58;131.07;;;60.00;;
21800;SDS011;11062;51.164;16.924;2023-03-03T04:37:24;90.00;;;24.85;;
21800;SDS011;11062;51.164;16.924;2023-03-03T04:39:50;48.22;;;20.35;;
21800;SDS011;11062;51.164;16.924;2023-03-03T04:43:01;70.25;;;40.30;;
21800;SDS011;11062;51.164;16.924;2023-03-03T04:45:36;85.30;;;52.42;;
21800;SDS011;11062;51.164;16.924;2023-03-03T04:48:51;70.53;;;41.88;;
21800;SDS011;11062;51.164;16.924;2023-03-03T04:51:42;103.22;;;59.30;;
21800;SDS011;11062;51.164;16.924;2023-03-03T04:54:23;102.20;;;59.05;;
21800;SDS011;11062;51.164;16.924;2023-03-03T04:57:51;103.88;;;55.00;;
21800;SDS011;11062;51.164;16.924;2023-03-03T05:00:17;130.07;;;61.63;;
21800;SDS011;11062;51.164;16.924;2023-03-03T05:02:44;102.72;;;54.28;;
21800;SDS011;11062;51.164;16.924;2023-03-03T05:05:12;89.63;;;51.78;;
21800;SDS011;11062;51.164;16.924;2023-03-03T05:07:38;87.10;;;48.55;;
21800;SDS011;11062;51.164;16.924;2023-03-03T05:10:05;79.40;;;44.28;;
21800;SDS011;11062;51.164;16.924;2023-03-03T05:12:32;76.82;;;36.53;;
21800;SDS011;11062;51.164;16.924;2023-03-03T05:14:58;69.00;;;36.20;;
21800;SDS011;11062;51.164;16.924;2023-03-03T05:17:24;64.07;;;23.20;;
21800;SDS011;11062;51.164;16.924;2023-03-03T05:19:50;77.68;;;39.97;;
21800;SDS011;11062;51.164;16.924;2023-03-03T05:22:15;76.63;;;29.90;;
21800;SDS011;11062;51.164;16.924;2023-03-03T05:24:42;68.25;;;34.47;;
21800;SDS011;11062;51.164;16.924;2023-03-03T05:27:08;66.68;;;28.90;;
21800;SDS011;11062;51.164;16.924;2023-03-03T05:29:35;79.63;;;27.30;;
21800;SDS011;11062;51.164;16.924;2023-03-03T05:32:01;63.17;;;20.10;;
21800;SDS011;11062;51.164;16.924;2023-03-03T05:34:27;50.00;;;14.25;;
21800;SDS011;11062;51.164;16.924;2023-03-03T05:36:53;51.67;;;14.27;;
21800;SDS011;11062;51.164;16.924;2023-03-03T05:39:22;32.90;;;13.10;;
21800;SDS011;11062;51.164;16.924;2023-03-03T05:41:49;53.10;;;17.00;;
21800;SDS011;11062;51.164;16.924;2023-03-03T05:44:14;44.35;;;25.02;;
21800;SDS011;11062;51.164;16.924;2023-03-03T05:46:40;38.13;;;15.82;;
21800;SDS011;11062;51.164;16.924;2023-03-03T05:49:06;49.85;;;19.50;;
21800;SDS011;11062;51.164;16.924;2023-03-03T05:51:36;56.28;;;16.15;;
21800;SDS011;11062;51.164;16.924;2023-03-03T05:54:02;60.75;;;25.08;;
21800;SDS011;11062;51.164;16.924;2023-03-03T05:56:28;68.30;;;24.33;;
21800;SDS011;11062;51.164;16.924;2023-03-03T05:58:53;84.78;;;41.22;;
21800;SDS011;11062;51.164;16.924;2023-03-03T06:01:20;115.38;;;55.10;;
21800;SDS011;11062;51.164;16.924;2023-03-03T06:03:46;92.82;;;60.63;;
21800;SDS011;11062;51.164;16.924;2023-03-03T06:06:17;108.45;;;59.45;;
21800;SDS011;11062;51.164;16.924;2023-03-03T06:08:43;110.45;;;53.78;;
21800;SDS011;11062;51.164;16.924;2023-03-03T06:11:12;130.35;;;64.75;;
21800;SDS011;11062;51.164;16.924;2023-03-03T06:13:40;137.05;;;67.80;;
21800;SDS011;11062;51.164;16.924;2023-03-03T06:16:06;84.80;;;44.35;;
21800;SDS011;11062;51.164;16.924;2023-03-03T06:18:33;103.95;;;47.78;;
21800;SDS011;11062;51.164;16.924;2023-03-03T06:20:59;85.47;;;50.25;;
21800;SDS011;11062;51.164;16.924;2023-03-03T06:23:25;106.05;;;54.65;;
21800;SDS011;11062;51.164;16.924;2023-03-03T06:25:51;117.18;;;55.35;;
21800;SDS011;11062;51.164;16.924;2023-03-03T06:28:17;107.40;;;46.65;;
21800;SDS011;11062;51.164;16.924;2023-03-03T06:30:43;96.72;;;45.78;;
21800;SDS011;11062;51.164;16.924;2023-03-03T06:33:09;120.82;;;56.15;;
21800;SDS011;11062;51.164;16.924;2023-03-03T06:35:39;102.32;;;57.95;;
21800;SDS011;11062;51.164;16.924;2023-03-03T06:38:15;127.00;;;51.58;;
21800;SDS011;11062;51.164;16.924;2023-03-03T06:40:45;60.60;;;36.70;;
21800;SDS011;11062;51.164;16.924;2023-03-03T06:43:12;84.25;;;47.45;;
21800;SDS011;11062;51.164;16.924;2023-03-03T06:45:42;60.53;;;24.02;;
21800;SDS011;11062;51.164;16.924;2023-03-03T06:48:11;85.63;;;42.28;;
21800;SDS011;11062;51.164;16.924;2023-03-03T06:50:37;70.50;;;45.80;;
21800;SDS011;11062;51.164;16.924;2023-03-03T06:53:11;91.68;;;50.28;;
21800;SDS011;11062;51.164;16.924;2023-03-03T06:55:38;88.18;;;51.17;;
21800;SDS011;11062;51.164;16.924;2023-03-03T06:58:26;78.82;;;32.63;;
21800;SDS011;11062;51.164;16.924;2023-03-03T07:00:58;82.18;;;41.58;;
21800;SDS011;11062;51.164;16.924;2023-03-03T07:03:34;99.70;;;51.90;;
21800;SDS011;11062;51.164;16.924;2023-03-03T07:06:07;105.93;;;62.45;;
21800;SDS011;11062;51.164;16.924;2023-03-03T07:08:46;121.65;;;62.78;;
21800;SDS011;11062;51.164;16.924;2023-03-03T07:11:14;145.38;;;67.22;;
21800;SDS011;11062;51.164;16.924;2023-03-03T07:13:47;116.80;;;60.65;;
21800;SDS011;11062;51.164;16.924;2023-03-03T07:16:18;123.55;;;67.80;;
21800;SDS011;11062;51.164;16.924;2023-03-03T07:18:58;121.10;;;68.25;;
21800;SDS011;11062;51.164;16.924;2023-03-03T07:21:33;211.13;;;143.32;;
21800;SDS011;11062;51.164;16.924;2023-03-03T07:24:14;178.40;;;77.95;;
21800;SDS011;11062;51.164;16.924;2023-03-03T07:26:49;168.98;;;96.97;;
21800;SDS011;11062;51.164;16.924;2023-03-03T07:29:21;115.70;;;61.95;;
21800;SDS011;11062;51.164;16.924;2023-03-03T07:31:50;127.23;;;66.67;;
21800;SDS011;11062;51.164;16.924;2023-03-03T07:37:13;105.05;;;60.30;;
21800;SDS011;11062;51.164;16.924;2023-03-03T07:39:44;84.75;;;55.30;;
21800;SDS011;11062;51.164;16.924;2023-03-03T07:42:30;97.35;;;58.83;;
21800;SDS011;11062;51.164;16.924;2023-03-03T07:45:24;103.15;;;58.38;;
21800;SDS011;11062;51.164;16.924;2023-03-03T07:55:42;176.98;;;75.95;;
21800;SDS011;11062;51.164;16.924;2023-03-03T08:03:19;131.50;;;71.68;;
21800;SDS011;11062;51.164;16.924;2023-03-03T08:07:10;111.28;;;67.47;;
21800;SDS011;11062;51.164;16.924;2023-03-03T08:10:54;100.32;;;58.30;;
21800;SDS011;11062;51.164;16.924;2023-03-03T08:14:08;95.07;;;57.20;;
21800;SDS011;11062;51.164;16.924;2023-03-03T08:17:22;106.65;;;61.17;;
21800;SDS011;11062;51.164;16.924;2023-03-03T08:23:42;96.68;;;55.35;;
21800;SDS011;11062;51.164;16.924;2023-03-03T08:26:18;95.72;;;59.13;;
21800;SDS011;11062;51.164;16.924;2023-03-03T08:28:45;130.82;;;65.28;;
21800;SDS011;11062;51.164;16.924;2023-03-03T08:31:12;116.07;;;64.97;;
21800;SDS011;11062;51.164;16.924;2023-03-03T08:33:38;100.60;;;61.35;;
21800;SDS011;11062;51.164;16.924;2023-03-03T08:36:06;118.47;;;63.40;;
21800;SDS011;11062;51.164;16.924;2023-03-03T08:38:36;120.40;;;64.20;;
21800;SDS011;11062;51.164;16.924;2023-03-03T08:41:04;114.60;;;62.00;;
21800;SDS011;11062;51.164;16.924;2023-03-03T08:43:31;104.60;;;60.13;;
21800;SDS011;11062;51.164;16.924;2023-03-03T08:46:00;97.63;;;66.18;;
21800;SDS011;11062;51.164;16.924;2023-03-03T08:48:30;114.70;;;62.65;;
21800;SDS011;11062;51.164;16.924;2023-03-03T08:51:00;102.88;;;61.22;;
21800;SDS011;11062;51.164;16.924;2023-03-03T08:53:29;89.25;;;58.80;;
21800;SDS011;11062;51.164;16.924;2023-03-03T08:55:57;104.90;;;60.22;;
21800;SDS011;11062;51.164;16.924;2023-03-03T08:58:27;102.45;;;60.80;;
21800;SDS011;11062;51.164;16.924;2023-03-03T09:00:53;116.97;;;67.95;;
21800;SDS011;11062;51.164;16.924;2023-03-03T09:03:19;133.60;;;72.97;;
21800;SDS011;11062;51.164;16.924;2023-03-03T09:05:48;112.65;;;71.28;;
21800;SDS011;11062;51.164;16.924;2023-03-03T09:08:16;127.45;;;66.70;;
21800;SDS011;11062;51.164;16.924;2023-03-03T09:10:45;138.10;;;69.00;;
21800;SDS011;11062;51.164;16.924;2023-03-03T09:13:13;137.00;;;68.10;;
21800;SDS011;11062;51.164;16.924;2023-03-03T09:15:40;140.93;;;71.10;;
21800;SDS011;11062;51.164;16.924;2023-03-03T09:18:17;136.18;;;67.15;;
21800;SDS011;11062;51.164;16.924;2023-03-03T09:20:59;120.05;;;64.63;;
21800;SDS011;11062;51.164;16.924;2023-03-03T09:26:20;141.63;;;67.55;;
21800;SDS011;11062;51.164;16.924;2023-03-03T09:28:54;114.20;;;63.72;;
21800;SDS011;11062;51.164;16.924;2023-03-03T09:31:24;121.57;;;64.47;;
21800;SDS011;11062;51.164;16.924;2023-03-03T09:33:55;123.82;;;66.07;;
21800;SDS011;11062;51.164;16.924;2023-03-03T09:36:26;95.05;;;55.85;;
21800;SDS011;11062;51.164;16.924;2023-03-03T09:38:54;102.10;;;56.42;;
21800;SDS011;11062;51.164;16.924;2023-03-03T09:41:56;116.63;;;59.38;;
21800;SDS011;11062;51.164;16.924;2023-03-03T09:49:55;104.80;;;52.08;;
21800;SDS011;11062;51.164;16.924;2023-03-03T09:52:36;101.68;;;54.63;;
21800;SDS011;11062;51.164;16.924;2023-03-03T09:55:15;97.45;;;47.35;;
21800;SDS011;11062;51.164;16.924;2023-03-03T09:57:58;109.78;;;56.10;;
21800;SDS011;11062;51.164;16.924;2023-03-03T10:00:49;144.07;;;79.82;;
21800;SDS011;11062;51.164;16.924;2023-03-03T10:06:27;141.50;;;84.20;;
21800;SDS011;11062;51.164;16.924;2023-03-03T10:12:27;91.95;;;62.72;;
21800;SDS011;11062;51.164;16.924;2023-03-03T10:15:14;95.32;;;69.00;;
21800;SDS011;11062;51.164;16.924;2023-03-03T10:21:10;90.68;;;61.33;;
21800;SDS011;11062;51.164;16.924;2023-03-03T10:24:13;69.93;;;51.75;;
21800;SDS011;11062;51.164;16.924;2023-03-03T10:32:52;80.20;;;61.30;;
21800;SDS011;11062;51.164;16.924;2023-03-03T10:39:00;144.00;;;88.53;;
21800;SDS011;11062;51.164;16.924;2023-03-03T10:53:09;65.00;;;55.28;;
21800;SDS011;11062;51.164;16.924;2023-03-03T10:59:00;72.20;;;44.15;;
21800;SDS011;11062;51.164;16.924;2023-03-03T11:07:24;114.70;;;61.92;;
21800;SDS011;11062;51.164;16.924;2023-03-03T11:13:25;87.32;;;52.78;;
21800;SDS011;11062;51.164;16.924;2023-03-03T11:16:33;89.28;;;56.03;;
21800;SDS011;11062;51.164;16.924;2023-03-03T11:22:14;74.38;;;45.70;;
21800;SDS011;11062;51.164;16.924;2023-03-03T11:24:45;92.05;;;53.05;;
21800;SDS011;11062;51.164;16.924;2023-03-03T11:41:14;82.40;;;43.92;;
21800;SDS011;11062;51.164;16.924;2023-03-03T11:44:01;93.47;;;54.05;;
21800;SDS011;11062;51.164;16.924;2023-03-03T11:46:37;78.05;;;43.78;;
21800;SDS011;11062;51.164;16.924;2023-03-03T11:49:13;79.80;;;44.50;;
21800;SDS011;11062;51.164;16.924;2023-03-03T11:54:58;97.82;;;50.75;;
21800;SDS011;11062;51.164;16.924;2023-03-03T11:57:40;70.72;;;39.00;;
21800;SDS011;11062;51.164;16.924;2023-03-03T12:08:14;128.35;;;64.72;;
21800;SDS011;11062;51.164;16.924;2023-03-03T12:16:55;81.95;;;49.67;;
21800;SDS011;11062;51.164;16.924;2023-03-03T12:22:20;67.38;;;41.83;;
21800;SDS011;11062;51.164;16.924;2023-03-03T12:25:22;89.40;;;53.60;;
21800;SDS011;11062;51.164;16.924;2023-03-03T12:28:10;70.72;;;42.20;;
21800;SDS011;11062;51.164;16.924;2023-03-03T12:31:00;73.47;;;45.70;;
21800;SDS011;11062;51.164;16.924;2023-03-03T12:39:15;109.93;;;62.65;;
21800;SDS011;11062;51.164;16.924;2023-03-03T12:41:49;134.55;;;67.65;;
21800;SDS011;11062;51.164;16.924;2023-03-03T12:44:59;99.60;;;61.53;;
21800;SDS011;11062;51.164;16.924;2023-03-03T12:47:49;131.85;;;66.40;;
21800;SDS011;11062;51.164;16.924;2023-03-03T12:53:38;102.13;;;55.95;;
21800;SDS011;11062;51.164;16.924;2023-03-03T12:56:34;112.10;;;62.28;;
21800;SDS011;11062;51.164;16.924;2023-03-03T13:05:15;74.45;;;43.45;;
21800;SDS011;11062;51.164;16.924;2023-03-03T13:10:48;93.90;;;52.53;;
21800;SDS011;11062;51.164;16.924;2023-03-03T13:16:08;72.28;;;40.08;;
21800;SDS011;11062;51.164;16.924;2023-03-03T13:21:19;44.87;;;21.53;;
21800;SDS011;11062;51.164;16.924;2023-03-03T13:23:58;54.97;;;29.50;;
21800;SDS011;11062;51.164;16.924;2023-03-03T13:29:13;49.35;;;25.75;;
21800;SDS011;11062;51.164;16.924;2023-03-03T13:31:55;55.45;;;19.08;;
21800;SDS011;11062;51.164;16.924;2023-03-03T13:37:21;72.93;;;32.55;;
21800;SDS011;11062;51.164;16.924;2023-03-03T13:39:58;62.90;;;31.95;;
21800;SDS011;11062;51.164;16.924;2023-03-03T13:51:39;69.55;;;42.17;;
21800;SDS011;11062;51.164;16.924;2023-03-03T13:59:35;61.47;;;35.72;;
21800;SDS011;11062;51.164;16.924;2023-03-03T14:02:15;47.08;;;21.50;;
21800;SDS011;11062;51.164;16.924;2023-03-03T14:04:53;47.47;;;19.75;;
21800;SDS011;11062;51.164;16.924;2023-03-03T14:10:48;81.07;;;30.15;;
21800;SDS011;11062;51.164;16.924;2023-03-03T14:18:57;84.82;;;48.42;;
21800;SDS011;11062;51.164;16.924;2023-03-03T14:21:30;58.53;;;38.10;;
21800;SDS011;11062;51.164;16.924;2023-03-03T14:24:18;63.28;;;40.35;;
21800;SDS011;11062;51.164;16.924;2023-03-03T14:26:54;91.22;;;61.42;;
21800;SDS011;11062;51.164;16.924;2023-03-03T14:31:53;98.95;;;57.38;;
21800;SDS011;11062;51.164;16.924;2023-03-03T14:36:49;118.20;;;61.38;;
21800;SDS011;11062;51.164;16.924;2023-03-03T14:39:27;151.18;;;67.88;;
21800;SDS011;11062;51.164;16.924;2023-03-03T14:41:59;145.50;;;65.60;;
21800;SDS011;11062;51.164;16.924;2023-03-03T14:44:36;117.05;;;64.90;;
21800;SDS011;11062;51.164;16.924;2023-03-03T14:47:25;102.15;;;61.10;;
21800;SDS011;11062;51.164;16.924;2023-03-03T14:49:53;76.13;;;57.55;;
21800;SDS011;11062;51.164;16.924;2023-03-03T14:52:29;90.05;;;48.97;;
21800;SDS011;11062;51.164;16.924;2023-03-03T14:55:00;104.20;;;66.05;;
21800;SDS011;11062;51.164;16.924;2023-03-03T14:57:46;103.22;;;56.10;;
21800;SDS011;11062;51.164;16.924;2023-03-03T15:10:37;55.85;;;44.25;;
21800;SDS011;11062;51.164;16.924;2023-03-03T15:22:26;63.22;;;19.23;;
21800;SDS011;11062;51.164;16.924;2023-03-03T15:25:17;30.90;;;12.82;;
21800;SDS011;11062;51.164;16.924;2023-03-03T15:27:51;35.88;;;14.95;;
21800;SDS011;11062;51.164;16.924;2023-03-03T15:36:07;36.20;;;12.60;;
21800;SDS011;11062;51.164;16.924;2023-03-03T15:49:55;77.75;;;56.20;;
21800;SDS011;11062;51.164;16.924;2023-03-03T15:55:46;85.22;;;55.65;;
21800;SDS011;11062;51.164;16.924;2023-03-03T16:11:14;58.70;;;40.05;;
21800;SDS011;11062;51.164;16.924;2023-03-03T16:17:13;88.68;;;60.08;;
21800;SDS011;11062;51.164;16.924;2023-03-03T16:29:41;69.35;;;53.38;;
21800;SDS011;11062;51.164;16.924;2023-03-03T16:32:50;125.90;;;72.20;;
21800;SDS011;11062;51.164;16.924;2023-03-03T16:38:37;97.13;;;57.70;;
21800;SDS011;11062;51.164;16.924;2023-03-03T16:41:12;104.57;;;60.95;;
21800;SDS011;11062;51.164;16.924;2023-03-03T16:46:53;108.00;;;59.95;;
21800;SDS011;11062;51.164;16.924;2023-03-03T16:50:05;117.63;;;65.32;;
21800;SDS011;11062;51.164;16.924;2023-03-03T16:52:44;121.13;;;68.38;;
21800;SDS011;11062;51.164;16.924;2023-03-03T17:08:13;72.13;;;44.70;;
21800;SDS011;11062;51.164;16.924;2023-03-03T17:10:26;46.53;;;27.52;;
21800;SDS011;11062;51.164;16.924;2023-03-03T17:18:52;42.65;;;20.35;;
21800;SDS011;11062;51.164;16.924;2023-03-03T17:32:52;51.15;;;28.80;;
21800;SDS011;11062;51.164;16.924;2023-03-03T17:35:41;42.97;;;21.65;;
21800;SDS011;11062;51.164;16.924;2023-03-03T17:38:25;38.58;;;16.13;;
21800;SDS011;11062;51.164;16.924;2023-03-03T17:41:02;52.25;;;24.33;;
21800;SDS011;11062;51.164;16.924;2023-03-03T17:44:26;32.83;;;14.70;;
21800;SDS011;11062;51.164;16.924;2023-03-03T17:47:03;29.30;;;14.68;;
21800;SDS011;11062;51.164;16.924;2023-03-03T17:50:06;36.38;;;12.15;;
21800;SDS011;11062;51.164;16.924;2023-03-03T18:23:19;59.60;;;24.88;;
21800;SDS011;11062;51.164;16.924;2023-03-03T18:25:58;61.22;;;19.67;;
21800;SDS011;11062;51.164;16.924;2023-03-03T18:28:43;67.47;;;17.25;;
21800;SDS011;11062;51.164;16.924;2023-03-03T18:31:23;80.88;;;17.33;;
21800;SDS011;11062;51.164;16.924;2023-03-03T18:36:37;71.72;;;16.65;;
21800;SDS011;11062;51.164;16.924;2023-03-03T18:39:16;77.25;;;40.72;;
21800;SDS011;11062;51.164;16.924;2023-03-03T18:44:33;43.90;;;20.13;;
21800;SDS011;11062;51.164;16.924;2023-03-03T18:46:59;80.43;;;20.65;;
21800;SDS011;11062;51.164;16.924;2023-03-03T18:49:59;69.32;;;18.13;;
21800;SDS011;11062;51.164;16.924;2023-03-03T18:57:35;85.85;;;22.50;;
21800;SDS011;11062;51.164;16.924;2023-03-03T19:00:22;73.45;;;26.20;;
21800;SDS011;11062;51.164;16.924;2023-03-03T19:02:53;90.10;;;36.20;;
21800;SDS011;11062;51.164;16.924;2023-03-03T19:07:50;95.70;;;56.55;;
21800;SDS011;11062;51.164;16.924;2023-03-03T19:10:40;77.03;;;49.47;;
21800;SDS011;11062;51.164;16.924;2023-03-03T19:16:02;130.30;;;61.97;;
21800;SDS011;11062;51.164;16.924;2023-03-03T19:21:32;87.25;;;29.02;;
21800;SDS011;11062;51.164;16.924;2023-03-03T19:26:30;298.27;;;96.90;;
21800;SDS011;11062;51.164;16.924;2023-03-03T19:29:08;243.93;;;90.25;;
21800;SDS011;11062;51.164;16.924;2023-03-03T19:40:41;267.02;;;96.82;;
21800;SDS011;11062;51.164;16.924;2023-03-03T19:46:47;255.30;;;95.32;;
21800;SDS011;11062;51.164;16.924;2023-03-03T19:52:21;249.13;;;88.60;;
21800;SDS011;11062;51.164;16.924;2023-03-03T20:01:13;240.20;;;88.88;;
21800;SDS011;11062;51.164;16.924;2023-03-03T20:03:58;226.88;;;85.22;;
21800;SDS011;11062;51.164;16.924;2023-03-03T20:14:17;231.25;;;90.18;;
21800;SDS011;11062;51.164;16.924;2023-03-03T20:31:22;269.75;;;95.63;;
21800;SDS011;11062;51.164;16.924;2023-03-03T20:34:49;274.25;;;96.28;;
21800;SDS011;11062;51.164;16.924;2023-03-03T20:40:38;271.80;;;99.18;;
21800;SDS011;11062;51.164;16.924;2023-03-03T20:54:11;252.07;;;95.55;;
21800;SDS011;11062;51.164;16.924;2023-03-03T20:56:52;253.25;;;93.72;;
21800;SDS011;11062;51.164;16.924;2023-03-03T20:59:41;249.20;;;91.80;;
21800;SDS011;11062;51.164;16.924;2023-03-03T21:02:44;246.48;;;93.68;;
21800;SDS011;11062;51.164;16.924;2023-03-03T21:05:16;241.20;;;89.47;;
21800;SDS011;11062;51.164;16.924;2023-03-03T21:10:22;37.25;;;19.98;;
21800;SDS011;11062;51.164;16.924;2023-03-03T21:12:52;41.80;;;21.50;;
21800;SDS011;11062;51.164;16.924;2023-03-03T21:15:30;35.15;;;20.60;;
21800;SDS011;11062;51.164;16.924;2023-03-03T21:18:17;37.63;;;19.95;;
21800;SDS011;11062;51.164;16.924;2023-03-03T21:20:45;40.20;;;21.13;;
21800;SDS011;11062;51.164;16.924;2023-03-03T21:23:13;37.75;;;21.23;;
21800;SDS011;11062;51.164;16.924;2023-03-03T21:25:52;38.83;;;20.38;;
21800;SDS011;11062;51.164;16.924;2023-03-03T21:28:26;36.13;;;20.17;;
21800;SDS011;11062;51.164;16.924;2023-03-03T21:31:01;35.87;;;22.27;;
21800;SDS011;11062;51.164;16.924;2023-03-03T21:36:10;41.45;;;22.10;;
21800;SDS011;11062;51.164;16.924;2023-03-03T21:38:38;39.30;;;21.75;;
21800;SDS011;11062;51.164;16.924;2023-03-03T21:41:05;39.75;;;21.52;;